Date,TemperatureHighF,TemperatureAvgF,TemperatureLowF,DewpointHighF,DewpointAvgF,DewpointLowF,HumidityHigh,HumidityAvg,HumidityLow,PressureMaxIn,PressureMinIn,WindSpeedMaxMPH,WindSpeedAvgMPH,GustSpeedMaxMPH,PrecipitationSumIn
2013-1-1,49.5,46.6,42.8,47.8,41.6,30.5,96,83,54,30.11,29.93,1,0,1,0.23
2013-1-2,48.7,45.4,41.2,47.6,42.2,38.1,96,89,71,30.20,29.92,0,0,1,0.31
2013-1-3,45.5,40.6,30.3,39.2,37.0,28.4,93,87,74,30.27,30.15,0,0,1,0.00
2013-1-4,50.6,36.2,27.5,28.8,26.9,23.7,94,73,37,30.33,30.19,1,0,2,0.00
2013-1-5,50.4,37.4,26.9,34.4,26.8,22.6,86,68,38,30.40,30.25,1,0,1,0.00
2013-1-6,51.2,43.3,37.5,40.0,37.5,33.7,91,81,63,30.25,30.06,0,0,0,0.01
2013-1-7,52.1,40.5,31.2,35.2,32.3,28.9,93,74,48,30.44,30.19,1,0,2,0.00
2013-1-8,54.2,41.2,29.0,41.7,35.2,27.0,93,80,55,30.48,30.37,0,0,0,0.00
2013-1-9,67.7,50.0,36.0,53.6,44.6,34.2,95,83,59,30.45,30.35,0,0,1,0.00
2013-1-10,64.3,52.1,45.1,49.1,44.8,40.6,96,78,51,30.53,30.42,1,0,1,0.00
2013-1-11,48.9,46.6,41.7,47.8,44.0,38.8,96,91,69,30.44,30.16,0,0,0,0.19
2013-1-12,71.7,56.9,48.7,65.4,54.8,47.6,97,93,79,30.17,30.09,0,0,1,0.01
2013-1-13,75.3,61.8,54.3,64.6,57.8,53.2,97,88,64,30.14,30.03,1,0,3,0.01
2013-1-14,65.8,61.7,57.5,63.1,59.7,55.8,97,93,85,30.14,30.07,0,0,1,0.14
2013-1-15,59.1,46.2,44.3,57.7,44.9,43.0,97,95,94,30.24,30.06,0,0,3,0.07
2013-1-16,49.8,47.4,44.4,49.0,46.5,43.3,97,97,96,30.09,29.97,0,0,1,0.25
2013-1-17,50.6,46.4,33.3,49.8,45.4,32.0,97,96,93,30.17,29.90,2,0,5,1.77
2013-1-18,45.0,36.3,29.1,33.9,31.0,27.3,97,82,53,30.55,30.15,1,0,3,0.21
2013-1-19,53.6,37.8,25.9,35.1,29.9,24.4,96,76,39,30.52,30.16,1,0,2,0.01
2013-1-20,63.4,46.4,33.7,40.6,34.8,31.5,93,67,37,30.16,29.98,1,0,4,0.00
2013-1-21,59.7,52.1,41.7,34.6,29.0,19.3,62,41,32,30.05,29.86,1,0,3,0.00
2013-1-22,41.7,33.7,24.1,23.3,10.2,0.6,61,39,20,30.30,29.96,1,0,4,0.00
2013-1-23,42.2,29.2,19.0,20.5,14.3,5.6,78,56,31,30.40,30.06,1,0,4,0.00
2013-1-24,38.7,31.4,23.6,26.0,14.4,5.0,81,52,29,30.53,29.98,2,0,6,0.00
2013-1-25,28.0,25.3,21.4,25.7,16.8,6.9,91,71,44,30.55,30.13,1,0,2,0.00
2013-1-26,38.7,31.3,27.4,33.7,28.6,25.3,93,90,75,30.42,30.10,0,0,0,0.00
2013-1-27,41.9,32.0,22.7,29.5,26.0,20.7,94,80,56,30.62,30.41,1,0,2,0.03
2013-1-28,51.5,43.2,33.0,48.1,37.1,28.7,92,80,60,30.52,30.23,1,0,2,0.08
2013-1-29,74.0,58.1,44.9,59.4,52.1,43.3,96,82,56,30.24,30.05,1,0,4,0.00
2013-1-30,71.6,65.2,56.6,64.0,60.9,54.0,94,86,73,30.05,29.38,3,1,12,0.37
2013-1-31,61.3,46.5,31.7,58.0,33.3,22.5,93,62,34,30.01,29.43,2,1,9,0.18
2013-2-1,40.5,35.3,27.1,29.7,16.2,6.0,83,48,27,30.40,29.87,3,0,8,0.00
2013-2-2,45.2,34.3,20.2,33.9,15.5,8.4,79,48,30,30.42,30.03,1,0,4,0.00
2013-2-3,50.6,42.0,34.8,35.7,30.8,25.6,90,66,44,30.03,29.85,1,0,3,0.00
2013-2-4,49.9,38.9,26.8,29.0,24.8,21.3,86,59,36,30.16,30.00,1,0,2,0.00
2013-2-5,60.2,45.8,37.9,38.3,33.9,28.5,84,64,41,30.01,29.88,1,0,2,0.00
2013-2-6,63.6,44.8,30.8,38.0,31.2,26.1,94,65,26,30.29,29.97,1,0,4,0.00
2013-2-7,47.1,41.0,35.0,41.6,35.9,29.3,95,83,68,30.34,30.00,0,0,2,0.60
2013-2-8,56.7,46.3,39.3,47.5,40.4,29.6,95,81,58,30.06,29.81,2,0,5,0.51
2013-2-9,54.1,40.2,28.6,30.6,25.8,20.0,91,61,29,30.36,30.05,1,0,3,0.00
2013-2-10,53.3,39.1,25.6,38.9,26.2,22.2,90,64,32,30.50,30.21,1,0,3,0.05
2013-2-11,62.9,54.1,41.6,59.7,52.0,38.9,97,93,86,30.22,29.90,1,0,3,0.05
2013-2-12,61.7,52.9,46.5,53.5,38.1,29.9,94,60,31,30.08,29.90,1,0,5,0.00
2013-2-13,48.7,45.8,41.5,46.4,43.5,36.6,96,92,68,29.95,29.63,0,0,4,0.47
2013-2-14,53.9,43.7,33.8,36.9,34.5,31.7,96,72,45,30.08,29.83,1,0,4,0.00
2013-2-15,64.1,44.7,29.5,43.3,33.6,27.9,95,70,31,30.10,29.92,1,0,2,0.00
2013-2-16,46.8,37.4,30.9,36.2,33.0,25.8,94,85,65,29.98,29.84,1,0,3,0.43
2013-2-17,39.7,31.3,24.2,26.2,17.6,9.7,85,60,31,30.22,29.93,2,0,6,0.00
2013-2-18,52.8,41.9,19.1,26.6,22.0,16.1,89,50,28,30.43,30.29,1,0,4,0.00
2013-2-19,41.7,39.3,36.5,40.1,37.7,34.9,95,94,94,29.97,29.96,0,0,0,0.24
2013-2-20,54.7,39.5,27.7,34.9,25.7,16.6,95,64,23,30.15,29.97,1,0,4,0.00
2013-2-21,57.0,41.3,26.1,28.6,22.4,18.5,83,50,24,30.27,30.11,1,0,2,0.00
2013-2-22,43.7,37.0,33.3,35.6,32.6,23.6,95,85,45,30.36,30.14,0,0,2,0.35
2013-2-23,44.0,40.7,36.8,42.7,39.5,35.5,96,95,94,30.14,29.82,0,0,1,0.72
2013-2-24,65.4,49.1,36.9,46.7,40.6,31.1,97,77,32,30.04,29.80,1,0,3,0.01
2013-2-25,43.1,37.7,33.9,32.7,26.6,22.8,89,65,48,30.23,30.04,1,0,2,0.00
2013-2-26,55.2,44.2,35.3,54.3,40.5,26.8,97,87,66,30.16,29.56,1,0,5,1.05
2013-2-27,62.7,49.9,42.2,44.5,41.3,38.1,96,75,43,29.78,29.62,1,0,4,0.00
2013-2-28,50.7,42.1,34.1,39.5,33.2,28.3,94,73,44,29.86,29.69,1,0,3,0.00
2013-3-1,50.3,39.8,29.0,34.0,29.8,26.4,91,69,46,29.92,29.84,1,0,3,0.00
2013-3-2,49.2,38.1,27.7,31.7,26.6,20.8,92,66,44,29.93,29.81,1,0,3,0.00
2013-3-3,49.3,37.0,27.2,24.6,21.4,18.4,77,54,36,29.99,29.84,1,0,5,0.00
2013-3-4,54.5,37.7,24.5,27.0,19.7,16.3,77,52,23,30.12,29.99,1,0,5,0.00
2013-3-5,46.9,41.4,34.4,43.8,35.7,25.0,96,81,55,30.08,29.57,0,0,2,0.29
2013-3-6,48.3,42.9,36.9,43.4,33.8,28.7,96,72,52,30.04,29.51,3,1,8,0.01
2013-3-7,54.7,43.4,33.5,34.0,30.2,26.2,82,61,43,30.24,30.03,2,0,5,0.00
2013-3-8,57.1,39.0,34.3,28.3,26.8,25.9,73,63,32,30.29,30.16,2,0,4,0.00
2013-3-9,66.1,45.0,33.9,33.8,29.9,27.2,80,58,26,30.33,30.23,0,0,2,0.00
2013-3-10,70.3,47.8,31.8,36.0,31.9,27.4,90,61,21,30.33,30.19,1,0,2,0.00
2013-3-11,69.7,53.6,36.6,54.6,43.8,31.1,83,70,53,30.25,29.92,2,0,4,0.00
2013-3-12,72.3,61.8,50.4,63.5,53.4,32.5,96,76,45,29.94,29.75,1,0,4,0.77
2013-3-13,59.9,47.7,34.8,36.4,29.2,20.3,90,51,31,30.14,29.94,2,0,5,0.00
2013-3-14,57.2,43.7,31.1,26.3,21.7,18.3,66,43,24,30.25,30.10,1,0,4,0.00
2013-3-15,65.6,50.4,27.8,37.7,31.4,23.0,84,51,30,30.19,29.89,1,0,6,0.00
2013-3-16,80.5,60.3,41.8,54.4,45.5,36.9,86,62,35,29.89,29.63,2,0,3,0.00
2013-3-17,60.9,51.4,41.4,53.4,45.5,38.3,92,81,66,30.18,29.81,1,0,3,0.00
2013-3-18,43.1,40.8,38.7,41.1,38.9,36.8,95,93,91,30.21,29.84,1,0,3,0.36
2013-3-19,70.5,52.3,40.8,49.5,35.4,13.3,96,62,19,30.03,29.83,2,0,4,0.00
2013-3-20,60.3,48.1,37.6,28.8,18.8,11.8,70,33,21,30.12,29.79,1,0,4,0.00
2013-3-21,49.9,40.7,32.3,35.2,21.6,12.5,82,48,27,29.99,29.74,2,0,5,0.00
2013-3-22,55.5,39.2,25.0,26.6,17.5,13.4,68,44,20,30.09,29.96,1,0,4,0.00
2013-3-23,57.6,44.8,34.9,34.5,29.3,23.0,81,57,34,30.06,29.90,1,0,1,0.00
2013-3-24,40.8,38.7,35.0,38.9,35.8,30.8,94,89,79,29.95,29.57,1,0,3,0.73
2013-3-25,50.4,41.7,36.2,38.9,31.9,25.0,94,71,41,29.82,29.57,2,0,4,0.01
2013-3-26,51.2,42.8,32.0,31.4,28.7,25.8,82,58,43,30.12,29.82,1,0,4,0.00
2013-3-27,56.0,43.4,34.1,29.4,26.6,22.3,76,54,30,30.23,30.12,2,0,5,0.00
2013-3-28,59.9,44.9,30.9,29.9,26.6,24.8,81,52,28,30.30,30.15,2,0,4,0.00
2013-3-29,62.7,46.0,29.6,34.3,29.1,25.9,88,57,28,30.34,30.17,1,0,3,0.00
2013-3-30,70.5,54.2,40.1,44.4,37.1,29.2,84,57,27,30.25,30.07,1,0,3,0.00
2013-3-31,69.0,56.7,48.4,58.4,51.7,43.5,96,84,66,30.10,29.79,1,0,3,0.69
2013-4-1,76.5,61.2,52.5,55.1,49.2,37.2,97,70,33,29.97,29.79,1,0,4,0.04
2013-4-2,63.8,50.3,36.2,37.5,31.4,24.0,88,52,25,30.16,29.97,1,0,5,0.00
2013-4-3,64.7,49.9,37.8,35.3,26.8,19.9,71,44,21,30.30,30.14,1,0,3,0.00
2013-4-4,48.9,43.2,39.7,40.1,32.8,22.8,95,69,42,30.37,29.94,1,0,3,0.74
2013-4-5,65.1,49.6,39.6,50.2,43.1,37.9,95,81,49,30.02,29.88,1,0,3,0.07
2013-4-6,67.7,53.9,41.8,41.3,34.2,23.8,92,52,25,30.27,30.01,1,0,3,0.00
2013-4-7,75.9,65.9,52.4,46.4,44.1,40.2,78,47,33,30.28,30.09,2,0,4,0.00
2013-4-8,81.5,65.0,48.4,59.7,51.9,45.2,94,66,39,30.17,30.03,2,0,3,0.00
2013-4-9,89.8,72.2,54.9,62.0,57.4,52.6,95,64,34,30.17,30.03,1,0,2,0.00
2013-4-10,85.3,73.2,60.8,61.5,59.4,56.1,85,64,41,30.05,29.91,1,0,3,0.00
2013-4-11,82.6,73.0,63.1,67.1,61.7,58.4,89,69,47,29.97,29.76,2,0,3,0.00
2013-4-12,82.3,72.3,62.7,69.1,65.4,47.0,95,80,48,29.79,29.57,2,0,4,0.50
2013-4-13,78.5,63.8,49.7,48.7,44.6,40.6,80,52,29,30.00,29.75,1,0,3,0.00
2013-4-14,84.8,65.2,45.1,55.1,45.6,38.3,93,56,21,30.10,29.99,1,0,3,0.00
2013-4-15,73.0,64.9,58.0,59.3,57.5,54.9,94,78,58,30.20,30.00,1,0,3,0.01
2013-4-16,81.2,67.5,60.5,63.7,59.6,57.8,92,77,50,30.29,30.18,1,0,2,0.00
2013-4-17,82.7,69.5,56.0,67.6,61.7,54.3,97,78,56,30.22,30.08,0,0,2,0.00
2013-4-18,81.3,71.2,60.1,64.9,61.2,57.5,93,72,50,30.18,30.01,1,0,4,0.00
2013-4-19,83.5,72.5,65.6,69.2,66.0,62.8,96,81,58,30.04,29.68,2,0,4,0.12
2013-4-20,66.0,55.9,46.2,64.0,43.3,33.2,95,66,34,30.27,29.79,1,0,2,0.00
2013-4-21,66.3,52.9,41.5,43.3,40.3,36.7,92,65,39,30.50,30.27,1,0,3,0.00
2013-4-22,65.6,51.4,38.7,46.7,39.5,34.9,88,65,38,30.49,30.26,1,0,4,0.00
2013-4-23,70.1,56.1,48.2,52.5,48.2,44.8,92,76,50,30.28,30.12,1,0,1,0.00
2013-4-24,79.3,63.1,46.7,59.6,53.7,44.8,96,74,47,30.14,29.96,1,0,4,0.00
2013-4-25,75.3,62.0,49.8,57.1,47.3,40.8,89,61,35,30.27,30.00,1,0,2,0.00
2013-4-26,76.8,59.4,43.1,48.3,42.5,36.4,92,60,25,30.42,30.26,1,0,3,0.00
2013-4-27,77.3,62.7,52.2,54.8,49.1,43.8,86,64,33,30.38,30.25,1,0,3,0.00
2013-4-28,60.4,57.8,54.4,56.5,53.5,50.5,95,86,73,30.25,30.10,0,0,0,0.00
2013-4-29,61.9,61.2,60.7,60.4,59.8,59.3,96,95,94,30.01,30.00,0,0,0,0.81
2013-4-30,67.0,61.3,56.8,61.0,58.5,54.6,96,91,77,30.17,29.99,0,0,1,0.00
2013-5-1,63.1,59.8,56.9,59.3,57.0,54.9,94,91,85,30.32,30.16,1,0,3,0.00
2013-5-2,63.6,59.2,54.6,58.4,56.2,52.6,96,90,82,30.33,30.25,0,0,3,0.00
2013-5-3,68.0,54.4,49.4,56.8,51.1,47.6,95,89,66,30.27,30.21,0,0,2,0.00
2013-5-4,66.2,60.5,52.4,53.8,50.8,47.4,84,71,61,30.19,30.08,1,0,3,0.00
2013-5-5,59.8,57.7,53.2,56.2,54.2,49.4,92,88,84,30.07,29.98,0,0,3,0.01
2013-5-6,63.3,58.7,56.6,62.1,57.3,54.9,97,95,90,30.01,29.83,1,0,4,1.51
2013-5-7,72.2,60.1,51.0,61.5,54.0,49.2,98,83,47,29.94,29.85,1,0,2,0.00
2013-5-8,60.1,56.6,54.1,58.4,54.8,51.8,96,94,92,30.00,29.92,0,0,0,0.12
2013-5-9,82.3,66.9,55.6,63.9,58.8,54.5,97,78,46,30.05,29.97,0,0,2,0.00
2013-5-10,88.3,71.5,55.8,66.5,60.9,54.4,96,73,41,30.06,29.92,1,0,3,0.00
2013-5-11,84.0,72.8,66.4,69.7,64.6,59.6,96,77,54,29.94,29.77,1,0,3,0.09
2013-5-12,75.3,65.6,53.6,65.1,52.6,39.3,96,66,38,30.02,29.77,1,0,2,0.01
2013-5-13,69.7,56.5,45.0,45.0,40.7,35.2,87,59,31,30.19,30.02,0,0,2,0.00
2013-5-14,74.9,58.2,41.2,47.8,41.9,36.6,93,59,29,30.26,30.07,1,0,2,0.00
2013-5-15,90.9,69.4,50.6,65.9,56.7,46.3,90,67,40,30.07,29.88,1,0,2,0.00
2013-5-16,87.6,74.1,61.6,65.6,62.9,59.6,95,71,43,29.96,29.88,0,0,2,0.00
2013-5-17,91.2,75.7,62.8,67.1,63.2,60.1,93,69,40,30.06,29.96,1,0,2,0.00
2013-5-18,75.3,70.8,64.3,71.8,67.2,62.6,96,89,82,30.14,30.05,0,0,2,0.25
2013-5-19,79.4,68.9,64.4,72.3,66.9,63.2,97,94,72,30.14,30.04,0,0,2,0.76
2013-5-20,78.3,69.8,68.0,73.2,68.5,67.1,97,96,83,30.10,30.01,0,0,1,1.41
2013-5-21,85.6,74.3,68.3,76.4,70.4,67.4,97,88,70,30.04,29.93,1,0,2,0.00
2013-5-22,86.3,74.8,69.0,73.4,69.7,67.6,96,85,60,30.02,29.89,1,0,4,0.00
2013-5-23,81.0,72.7,67.7,72.2,69.1,66.4,97,89,70,29.95,29.80,0,0,1,0.40
2013-5-24,72.3,64.9,53.5,66.4,55.8,42.8,97,75,41,30.18,29.80,2,0,4,0.03
2013-5-25,75.8,59.1,44.4,55.4,44.9,37.4,93,64,31,30.27,30.13,0,0,2,0.00
2013-5-26,77.0,61.7,49.7,57.5,49.0,43.1,89,66,36,30.27,30.16,0,0,1,0.00
2013-5-27,82.5,66.6,51.0,59.7,54.8,49.3,96,70,38,30.28,30.15,1,0,2,0.00
2013-5-28,87.3,73.2,60.6,70.0,63.9,57.2,95,74,53,30.24,30.13,1,0,3,0.00
2013-5-29,88.5,75.4,62.6,68.1,65.1,60.5,95,73,48,30.23,30.14,1,0,2,0.00
2013-5-30,88.6,75.2,63.0,70.6,65.7,61.2,96,75,45,30.26,30.16,1,0,3,0.00
2013-5-31,89.5,76.7,66.0,71.5,67.5,63.9,95,76,48,30.21,30.08,0,0,2,0.00
2013-6-1,75.0,74.1,73.2,69.1,68.6,67.7,86,83,82,30.11,30.09,0,0,1,0.00
2013-6-2,80.1,79.7,79.4,71.0,70.7,70.0,75,74,73,29.92,29.89,0,0,1,0.00
2013-6-4,75.2,75.2,75.2,64.7,64.6,64.3,70,70,69,30.03,30.03,0,0,2,0.00
2013-6-6,71.7,70.5,69.8,70.8,69.6,68.9,97,97,97,29.85,29.83,0,0,1,1.29
2013-6-7,71.8,70.2,68.8,71.2,69.5,68.2,98,98,97,29.84,29.64,0,0,1,3.73
2013-6-8,82.0,70.8,66.0,73.7,69.1,65.4,99,95,71,29.98,29.80,0,0,1,0.04
2013-6-9,89.2,80.8,72.4,75.5,72.8,70.1,95,78,58,30.14,30.05,0,0,2,0.06
2013-6-10,81.5,75.2,72.0,78.1,73.1,70.4,98,93,86,30.09,29.88,1,0,4,0.63
2013-6-11,86.7,77.0,70.7,71.6,69.6,67.3,94,79,54,29.94,29.88,1,0,3,0.00
2013-6-12,84.8,78.0,66.4,77.2,72.8,65.2,96,85,70,29.96,29.85,0,0,0,0.00
2013-6-13,90.7,75.7,68.2,78.5,72.5,67.1,98,90,65,29.77,29.62,0,0,1,0.20
2013-6-14,82.6,70.3,61.2,67.3,62.0,59.2,97,77,48,30.01,29.72,0,0,3,0.00
2013-6-15,86.3,71.6,59.9,67.3,62.9,58.5,97,77,44,30.11,30.01,0,0,2,0.00
2013-6-16,88.0,81.6,67.5,72.6,70.1,64.7,92,69,57,30.07,29.99,1,0,3,0.00
2013-6-17,85.9,77.8,72.0,75.2,70.5,66.6,86,79,65,30.02,29.91,0,0,2,0.00
2013-6-18,84.0,75.8,71.4,75.5,71.6,69.3,95,87,73,29.96,29.72,1,0,2,0.76
2013-6-19,81.8,74.2,65.4,71.5,68.7,64.5,98,84,66,30.11,29.92,0,0,2,0.00
2013-6-20,80.5,70.2,65.6,67.1,64.9,61.6,96,85,58,30.22,30.11,0,0,1,0.00
2013-6-22,85.7,76.2,70.4,74.2,71.8,69.2,96,87,67,30.20,30.10,0,0,1,0.06
2013-6-23,85.9,79.2,69.8,75.8,73.6,68.6,96,83,66,30.20,30.12,1,0,2,0.00
2013-6-24,82.6,75.2,72.3,74.7,71.5,69.9,95,89,77,30.18,30.08,0,0,1,0.05
2013-6-25,91.9,77.8,70.2,78.7,72.2,68.4,95,84,59,30.11,29.99,0,0,2,0.00
2013-6-26,92.8,76.2,70.0,78.4,71.7,67.7,97,87,58,30.03,29.90,0,0,4,0.20
2013-6-27,85.4,73.5,68.3,78.4,71.2,67.2,97,93,78,29.92,29.70,0,0,4,0.14
2013-6-28,92.8,79.1,71.2,77.5,73.4,69.5,98,85,57,29.73,29.55,1,0,4,0.80
2013-6-29,83.6,75.8,70.1,76.1,72.4,69.3,98,90,73,29.70,29.58,0,0,2,0.28
2013-6-30,86.0,73.7,69.6,77.8,72.2,68.0,98,95,73,29.85,29.70,1,0,7,5.99
2013-7-1,81.2,73.0,69.8,75.9,71.6,69.2,98,96,84,29.98,29.84,0,0,2,0.85
2013-7-2,75.7,74.4,73.3,74.3,72.9,71.4,98,95,91,30.17,29.97,0,0,2,0.17
2013-7-3,87.6,76.8,73.4,78.4,74.7,72.8,98,94,72,30.23,30.14,0,0,2,0.22
2013-7-4,87.8,78.1,73.3,77.2,73.3,-99.9,98,87,63,30.26,30.15,1,0,3,0.02
2013-7-5,91.1,81.0,72.8,77.7,74.3,71.3,97,81,60,30.26,30.14,1,0,3,0.01
2013-7-6,89.1,79.6,74.9,76.6,74.1,71.3,95,84,64,30.23,30.10,1,0,3,0.00
2013-7-7,88.5,78.0,70.2,78.8,73.1,68.7,96,85,66,30.18,30.04,1,0,4,0.00
2013-7-8,85.3,76.2,73.9,76.6,73.2,71.6,96,91,70,30.15,30.07,0,0,2,0.01
2013-7-9,87.5,77.6,73.2,79.3,74.1,70.7,96,89,74,30.14,30.06,0,0,1,0.03
2013-7-10,88.6,79.8,72.3,78.4,74.7,70.5,97,85,68,30.09,29.93,1,0,4,0.43
2013-7-11,75.3,73.8,72.8,74.2,73.0,72.0,98,97,96,29.97,29.87,0,0,1,0.41
2013-7-12,73.0,72.3,71.3,72.4,71.5,69.8,98,97,94,30.01,29.86,0,0,1,0.01
2013-7-13,76.9,75.3,72.5,76.3,74.3,71.3,98,97,93,30.17,30.09,0,0,1,0.17
2013-7-14,89.9,78.3,70.9,77.8,74.1,70.0,98,88,60,30.29,30.17,0,0,2,0.07
2013-7-15,86.0,78.3,69.9,76.0,73.3,69.3,99,86,65,30.31,30.23,0,0,0,0.00
2013-7-16,93.9,80.6,70.5,79.2,74.2,69.6,98,83,57,30.26,30.16,0,0,2,0.00
2013-7-17,94.9,83.0,76.3,79.3,76.7,74.8,96,83,54,30.20,30.12,0,0,2,0.00
2013-7-18,95.1,82.5,74.7,80.3,76.9,73.2,96,84,58,30.12,30.01,0,0,1,0.00
2013-7-19,84.6,77.1,75.6,76.2,74.8,73.8,95,93,76,30.08,29.97,0,0,1,0.00
2013-7-20,90.6,80.8,75.9,78.2,75.1,72.6,90,83,65,30.01,29.90,1,0,3,0.00
2013-7-21,89.9,80.1,75.4,78.8,75.0,72.3,95,85,68,29.97,29.88,1,0,4,0.00
2013-7-22,85.1,80.2,77.9,75.6,74.6,74.0,89,83,72,29.83,29.81,0,0,2,0.00
2013-7-23,92.4,81.5,74.5,77.1,74.2,72.2,94,80,56,29.83,29.70,0,0,2,0.00
2013-7-24,80.0,75.1,72.3,73.6,71.4,69.7,92,88,79,29.83,29.71,0,0,0,0.00
2013-7-25,81.2,73.5,68.3,73.3,68.9,65.6,96,86,70,30.02,29.81,0,0,1,0.05
2013-7-26,88.1,74.7,64.0,71.2,66.3,62.5,96,77,50,30.10,30.01,0,0,2,0.00
2013-7-27,87.5,75.2,68.6,73.8,69.7,66.8,97,85,56,30.05,29.92,1,0,2,0.15
2013-7-28,90.1,76.9,69.7,75.7,71.5,68.8,98,85,55,29.99,29.90,1,0,2,0.06
2013-7-29,87.7,67.2,68.7,70.9,46.9,-99.9,97,68,52,30.11,29.97,0,-130,5,0.24
2013-7-30,83.1,74.7,74.0,72.8,64.8,-99.9,89,78,67,30.19,30.12,0,-38,0,0.00
2013-7-31,84.4,77.4,71.3,74.5,71.9,69.5,95,84,64,30.13,29.99,1,0,3,0.26
2013-8-1,80.2,72.5,71.0,73.9,71.0,68.8,97,95,81,30.00,29.86,0,0,3,0.36
2013-8-2,89.2,78.7,67.0,76.3,71.8,66.1,98,81,58,30.01,29.92,0,0,1,1.95
2013-8-3,91.5,77.9,71.1,79.6,73.7,69.9,97,88,65,30.00,29.89,0,0,2,0.00
2013-8-4,86.1,76.5,68.6,73.7,69.8,63.3,97,82,52,30.02,29.87,1,0,3,0.00
2013-8-5,81.3,77.0,66.9,70.6,68.9,65.1,94,77,61,30.06,29.99,1,0,4,0.00
2013-8-6,82.2,73.7,66.9,72.2,68.6,65.7,97,85,67,30.06,30.00,2,0,4,0.23
2013-8-7,87.3,77.5,69.9,75.0,71.2,68.1,94,82,60,30.09,30.01,2,0,5,0.00
2013-8-8,87.8,82.0,71.3,77.5,74.9,69.8,96,80,62,30.06,29.98,1,0,3,0.00
2013-8-9,92.9,83.6,75.2,79.4,75.0,-99.9,94,77,63,30.03,29.96,3,-5,6,0.00
2013-8-10,95.0,80.2,73.9,81.0,75.0,-99.9,97,86,56,30.08,29.98,6,-3,8,0.50
2013-8-11,92.7,80.1,72.1,79.0,74.9,71.2,98,86,60,30.09,29.99,3,0,3,0.00
2013-8-12,92.5,81.7,73.2,78.4,75.1,72.3,97,82,54,30.03,29.91,3,0,3,0.20
2013-8-13,89.2,78.3,71.8,80.2,74.8,70.9,98,90,68,29.96,29.76,4,0,4,0.36
2013-8-14,77.2,72.8,63.9,72.5,67.2,61.9,96,83,70,30.09,29.81,4,0,4,0.00
2013-8-15,79.3,67.3,60.4,63.9,60.5,57.9,94,80,52,30.16,30.07,4,0,4,0.00
2013-8-16,71.4,66.2,59.9,64.2,61.5,58.5,95,85,72,30.18,30.09,1,0,1,0.00
2013-8-17,71.8,67.1,62.6,70.7,65.4,60.6,97,94,89,30.18,30.11,1,0,1,0.35
2013-8-18,80.8,72.7,68.5,73.2,69.6,66.4,98,90,74,30.20,30.11,4,0,4,0.06
2013-8-19,74.3,69.9,66.9,72.5,68.6,65.7,98,96,92,30.19,30.09,2,0,2,0.54
2013-8-20,83.7,74.1,66.7,75.7,70.7,-99.9,98,90,74,30.18,30.10,3,-4,3,0.00
2013-8-21,84.9,75.5,70.7,79.0,73.8,69.8,97,94,76,30.21,30.09,3,0,3,0.25
2013-8-22,90.3,78.2,70.3,77.4,73.2,69.4,98,86,59,30.13,29.97,3,0,3,0.00
2013-8-23,87.4,76.9,68.7,77.5,72.0,66.0,96,85,67,30.07,29.91,4,0,5,0.00
2013-8-24,84.4,73.5,64.9,66.4,64.3,60.4,93,75,47,30.29,30.06,3,0,4,0.00
2013-8-25,81.3,70.2,61.0,66.7,62.5,59.0,97,79,47,30.39,30.27,3,0,3,0.00
2013-8-26,85.3,69.5,56.3,66.2,61.1,55.2,97,78,45,30.32,30.10,3,0,3,0.00
2013-8-27,89.4,75.8,63.3,77.0,68.9,60.1,92,80,57,30.12,29.95,3,0,3,0.00
2013-8-28,83.7,76.9,70.0,77.2,73.9,68.9,97,91,77,29.97,29.85,1,0,1,0.00
2013-8-29,88.0,80.0,74.5,76.8,73.7,70.7,92,82,62,30.01,29.82,4,0,4,0.00
2013-8-30,89.8,77.1,68.4,72.9,69.3,66.4,96,79,47,30.05,29.92,4,0,4,0.00
2013-8-31,89.2,78.0,67.3,75.2,71.6,66.0,97,82,60,29.96,29.84,6,0,6,0.06
2013-9-1,92.7,77.6,71.1,79.2,73.6,70.2,98,89,61,29.88,29.75,5,0,6,1.62
2013-9-2,88.3,77.5,69.4,77.9,73.5,68.9,98,88,67,29.87,29.78,3,0,3,0.01
2013-9-3,88.2,78.3,72.3,79.2,74.4,71.2,97,89,67,29.93,29.78,3,0,3,0.26
2013-9-4,85.5,75.4,66.7,74.1,69.7,64.0,95,83,64,30.08,29.92,3,0,3,0.00
2013-9-5,87.6,74.6,65.5,69.4,66.3,60.8,97,78,42,30.09,30.01,2,0,2,0.00
2013-9-6,82.0,72.2,63.3,66.9,63.0,58.1,94,74,54,30.17,30.07,3,0,3,0.00
2013-9-7,83.1,70.7,59.9,70.2,64.2,58.5,96,82,59,30.13,29.96,4,0,5,0.00
2013-9-8,87.1,74.5,63.7,72.5,66.5,61.3,97,79,45,29.98,29.90,3,0,3,0.00
2013-9-9,89.1,76.6,66.4,73.2,69.6,65.1,96,81,53,30.14,29.98,6,0,6,0.00
2013-9-10,90.0,78.0,67.8,74.5,70.6,66.6,97,80,54,30.22,30.12,2,0,3,0.00
2013-9-11,90.9,77.8,67.5,74.5,70.2,66.0,96,79,50,30.19,30.06,4,0,4,0.00
2013-9-12,91.2,78.7,70.2,75.9,71.6,66.9,91,80,59,30.06,29.79,3,0,3,0.00
2013-9-13,86.0,75.7,66.4,71.1,65.0,55.6,94,71,45,29.89,29.74,4,0,4,0.00
2013-9-14,77.4,66.8,59.0,59.5,55.0,50.4,89,67,47,30.14,29.88,3,0,3,0.00
2013-9-15,81.7,66.6,53.1,64.8,58.4,51.1,94,77,49,30.24,30.11,3,0,3,0.00
2013-9-16,86.4,74.1,64.9,73.2,65.8,60.1,97,78,47,30.19,30.02,3,0,3,0.03
2013-9-17,78.3,68.3,58.8,61.3,56.3,52.2,87,67,42,30.31,30.18,5,0,5,0.00
2013-9-18,74.8,62.1,52.0,56.3,52.2,46.9,93,73,43,30.31,30.17,2,0,2,0.00
2013-9-19,78.6,66.0,55.2,65.5,59.0,52.5,92,79,56,30.19,30.07,2,0,2,0.00
2013-9-20,70.3,67.4,63.9,67.5,65.0,62.1,96,92,88,30.09,29.96,2,0,2,0.20
2013-9-21,78.3,70.0,66.0,72.1,67.9,64.8,97,93,80,29.96,29.72,4,0,4,0.66
2013-9-22,77.4,67.7,59.5,65.7,62.6,57.6,97,85,59,29.89,29.70,5,0,5,0.48
2013-9-23,72.3,62.5,53.6,59.9,55.8,51.6,95,80,56,30.07,29.89,3,0,3,0.00
2013-9-24,76.6,64.0,54.7,62.8,57.9,53.2,95,82,57,30.10,29.94,2,0,3,0.00
2013-9-25,72.7,63.6,53.2,64.8,59.6,51.8,97,87,67,29.96,29.86,2,0,2,0.00
2013-9-26,77.5,66.5,57.9,62.8,59.0,52.9,96,79,43,30.03,29.87,3,0,3,0.00
2013-9-27,74.8,63.2,54.3,62.1,57.1,52.9,97,82,57,30.19,30.03,2,0,4,0.00
2013-9-28,72.0,61.5,52.3,58.8,55.2,50.9,97,81,58,30.26,30.16,5,0,6,0.00
2013-9-29,73.8,62.0,52.9,60.1,55.0,51.3,97,80,51,30.18,30.03,3,0,3,0.00
2013-9-30,76.5,62.5,52.2,62.4,56.4,50.7,96,82,53,30.10,29.98,2,0,3,0.00
2013-10-1,83.7,66.5,53.1,66.2,59.3,51.6,97,80,49,30.11,30.01,3,0,3,0.00
2013-10-2,84.2,69.1,56.8,66.6,61.3,55.8,97,79,48,30.12,30.03,3,0,4,0.00
2013-10-3,86.2,71.1,59.7,68.5,63.3,58.3,96,79,46,30.12,30.04,5,0,5,0.00
2013-10-4,87.3,72.1,60.4,69.6,64.8,59.4,97,80,50,30.12,30.03,5,0,5,0.00
2013-10-5,89.8,74.2,61.9,70.9,65.8,60.8,96,78,45,30.10,30.00,5,0,5,0.00
2013-10-6,84.6,72.9,62.1,72.3,67.6,60.6,97,85,61,30.06,29.91,5,0,6,0.00
2013-10-7,73.8,70.6,63.0,71.4,68.9,59.2,97,95,87,29.99,29.83,5,0,5,2.00
2013-10-8,63.9,61.0,55.2,60.3,52.9,48.6,91,75,65,30.21,29.98,4,0,4,0.09
2013-10-9,64.6,59.0,55.0,57.7,54.5,51.4,95,85,77,30.19,30.09,6,0,7,0.09
2013-10-10,61.2,57.7,54.3,60.1,56.4,52.7,96,96,95,30.10,29.94,4,0,4,0.21
2013-10-11,68.4,63.3,59.7,64.6,61.1,57.9,96,92,84,29.97,29.91,3,0,3,0.02
2013-10-12,69.4,64.8,61.2,66.2,62.9,59.7,97,94,88,30.08,29.96,3,0,3,0.01
2013-10-13,67.8,64.5,62.2,64.8,62.7,60.8,96,94,90,30.20,30.08,4,0,4,0.08
2013-10-14,66.0,62.5,57.7,63.0,60.8,56.3,97,94,89,30.24,30.17,4,0,4,0.05
2013-10-15,73.6,63.0,53.1,63.3,58.3,52.0,97,86,66,30.21,30.05,4,0,4,0.00
2013-10-16,70.2,65.7,61.9,64.0,62.4,60.4,96,89,79,30.06,29.95,2,0,2,0.00
2013-10-17,74.5,67.2,60.6,67.1,63.8,59.5,97,89,74,29.96,29.83,3,0,3,0.00
2013-10-18,69.4,63.0,55.2,64.9,55.8,49.3,97,79,54,30.04,29.87,2,0,3,0.00
2013-10-19,70.2,62.3,58.1,65.5,59.7,56.1,96,91,82,29.98,29.80,4,0,4,0.02
2013-10-20,63.5,54.6,45.3,58.3,48.0,43.7,96,80,50,30.13,29.90,3,0,3,0.00
2013-10-21,66.4,52.5,39.9,53.2,46.5,38.5,97,82,50,30.18,30.01,4,0,4,0.00
2013-10-22,66.4,58.2,52.2,61.3,55.8,50.5,96,92,79,30.01,29.80,2,0,2,0.00
2013-10-23,65.8,58.5,47.7,58.5,49.6,36.5,97,75,45,30.01,29.68,6,0,6,0.00
2013-10-24,58.6,47.7,37.2,43.3,38.0,34.3,89,71,45,30.19,30.01,4,0,6,0.00
2013-10-25,55.8,46.7,39.2,38.8,35.1,30.4,86,66,39,30.37,30.18,5,0,5,0.00
2013-10-26,58.8,44.6,30.4,42.1,34.6,28.6,94,71,41,30.37,30.07,5,0,5,0.00
2013-10-27,67.8,54.2,43.0,48.9,43.3,39.0,92,69,41,30.13,30.03,3,0,3,0.00
2013-10-28,67.6,54.7,44.2,57.0,50.2,42.6,95,86,61,30.26,30.12,0,0,0,0.00
2013-10-29,72.3,59.4,52.0,61.2,55.3,50.5,96,87,63,30.34,30.24,2,0,2,0.00
2013-10-30,73.6,59.9,51.6,62.4,56.3,50.0,97,89,65,30.30,30.15,2,0,3,0.00
2013-10-31,73.9,63.9,54.3,63.1,58.4,53.2,97,83,63,30.19,29.91,4,0,4,0.00
2013-11-1,72.1,68.5,62.8,68.5,65.7,61.7,97,91,81,29.91,29.65,5,0,5,0.70
2013-11-2,69.8,61.0,53.4,61.7,53.6,41.4,97,79,45,29.94,29.69,4,0,6,0.00
2013-11-3,63.3,51.5,41.5,44.2,41.4,38.8,90,71,44,30.38,29.93,6,0,6,0.00
2013-11-4,55.4,44.7,36.7,39.7,36.2,33.3,91,74,46,30.56,30.38,3,0,3,0.00
2013-11-5,57.4,48.8,37.9,50.2,42.6,33.6,89,79,67,30.55,30.43,2,0,3,0.00
2013-11-6,70.7,56.2,44.1,57.9,51.3,42.1,95,85,62,30.44,30.11,2,0,3,0.00
2013-11-7,69.1,59.2,45.5,62.6,52.9,35.1,97,81,53,30.12,29.92,5,0,5,0.01
2013-11-8,57.0,45.8,35.1,36.5,32.8,28.6,90,63,35,30.34,30.11,4,0,5,0.00
2013-11-9,59.2,44.6,31.3,39.4,34.4,29.8,95,71,36,30.39,30.20,3,0,3,0.00
2013-11-10,71.1,51.9,35.2,44.6,38.4,30.7,95,65,32,30.24,30.06,5,0,5,0.00
2013-11-11,58.6,45.9,34.0,37.0,33.4,30.0,90,64,37,30.36,30.14,3,0,3,0.00
2013-11-12,60.8,41.9,34.2,45.7,35.1,21.7,94,79,47,30.45,30.05,6,0,6,0.02
2013-11-13,45.1,35.1,27.9,25.2,21.9,19.0,84,60,37,30.55,30.44,5,0,5,0.00
2013-11-14,57.9,39.2,24.8,29.8,25.9,21.7,89,64,29,30.48,30.34,4,0,4,0.00
2013-11-15,59.7,44.3,28.4,46.4,36.6,26.1,92,76,48,30.37,30.22,3,0,3,0.00
2013-11-16,64.4,54.9,48.0,58.5,52.3,45.5,96,91,80,30.28,30.21,2,0,2,0.02
2013-11-17,67.3,60.2,53.1,64.8,58.4,52.0,97,94,85,30.22,29.88,1,0,1,0.05
2013-11-18,74.1,65.4,54.7,67.3,54.1,32.2,97,70,36,29.97,29.79,4,0,4,0.05
2013-11-19,55.8,48.6,41.0,33.4,31.8,29.5,73,53,39,30.32,29.96,5,0,5,0.00
2013-11-20,52.7,44.8,37.6,38.3,33.2,29.1,83,64,50,30.46,30.32,4,0,6,0.00
2013-11-21,59.7,50.1,41.7,49.3,43.1,36.9,86,77,65,30.51,30.39,3,0,3,0.00
2013-11-22,70.0,58.8,48.0,61.3,53.9,45.1,95,84,74,30.40,30.08,3,0,4,0.01
2013-11-23,61.5,56.0,43.9,60.1,44.9,23.2,96,69,39,30.19,30.03,4,0,5,0.01
2013-11-24,43.9,33.9,25.9,25.7,12.2,3.7,66,42,24,30.57,30.19,6,0,6,0.00
2013-11-25,42.6,32.0,20.1,21.6,14.9,9.7,80,52,26,30.61,30.40,4,0,4,0.01
2013-11-26,64.2,43.5,37.6,63.5,35.2,17.4,98,75,42,30.40,29.60,5,0,5,1.17
2013-11-27,47.1,40.1,30.0,46.4,37.3,21.6,97,90,68,30.19,29.51,4,0,5,0.49
2013-11-28,43.3,33.0,26.1,27.9,22.6,18.0,91,67,42,30.51,30.19,3,0,4,0.00
2013-11-29,49.8,35.5,24.8,30.2,26.7,23.0,94,74,43,30.66,30.49,6,0,6,0.00
2013-11-30,47.7,36.6,28.9,34.7,29.4,24.6,91,76,59,30.67,30.39,4,0,5,0.00
2013-12-1,57.6,41.0,28.0,38.5,33.2,26.4,94,77,43,30.39,30.03,2,0,2,0.00
2013-12-2,59.2,44.5,35.4,46.9,39.6,33.3,94,84,61,30.03,29.82,3,0,3,0.00
2013-12-3,54.9,45.4,33.3,48.4,41.9,32.0,96,88,74,30.01,29.88,2,0,2,0.01
2013-12-4,63.3,55.5,49.1,58.3,53.2,47.7,96,92,82,30.10,29.98,1,0,1,0.00
2013-12-5,66.6,61.4,54.0,65.1,60.2,52.9,98,96,91,30.13,30.02,4,0,4,0.05
2013-12-6,77.7,70.2,64.9,66.6,64.5,63.0,96,83,66,30.06,29.95,8,0,9,0.00
2013-12-7,70.0,49.9,43.9,66.0,45.2,35.4,95,84,72,30.46,29.98,7,0,12,0.20
2013-12-8,43.9,36.9,34.0,36.1,33.0,30.2,96,86,66,30.49,30.31,4,0,5,0.11
2013-12-9,45.7,40.3,35.2,45.0,39.4,34.2,97,97,96,30.31,30.08,2,0,2,0.27
2013-12-10,48.6,43.3,29.7,45.5,41.3,28.0,97,93,72,30.34,29.93,4,0,4,0.43
2013-12-11,48.7,35.7,25.0,32.5,28.3,23.5,96,77,44,30.47,30.30,4,0,4,0.00
2013-12-12,44.2,34.8,27.0,29.3,24.2,18.0,94,68,35,30.43,30.29,5,0,5,0.00
2013-12-13,51.6,36.0,23.5,32.2,25.5,20.3,91,69,33,30.41,30.27,3,0,3,0.00
2013-12-14,47.1,40.7,36.7,42.6,37.9,32.2,96,90,64,30.32,29.80,3,0,3,0.91
2013-12-15,53.8,43.2,33.1,45.1,37.7,29.3,97,82,59,30.09,29.72,4,0,4,0.05
2013-12-16,54.7,39.5,28.6,39.0,33.1,27.0,95,80,51,30.19,30.08,4,0,4,0.00
2013-12-17,59.7,44.9,30.6,43.2,36.5,29.3,96,75,46,30.13,29.88,7,0,7,0.00
2013-12-18,49.3,40.3,29.7,38.8,25.7,20.8,87,58,33,30.30,30.04,6,0,7,0.00
2013-12-19,62.4,42.6,26.8,35.2,28.6,24.3,92,64,25,30.33,30.22,4,0,4,0.00
2013-12-20,66.7,51.1,37.9,55.2,44.3,32.9,91,78,58,30.25,30.11,4,0,4,0.00
2013-12-21,73.8,59.0,44.2,66.0,54.9,43.0,97,87,67,30.16,30.03,6,0,6,0.00
2013-12-22,77.7,70.6,63.7,68.5,65.7,61.9,97,85,67,30.08,30.00,8,0,8,0.33
2013-12-23,65.7,59.9,45.9,65.1,58.8,40.1,98,96,80,30.17,29.98,4,0,4,1.31
2013-12-24,47.1,41.5,30.4,40.8,30.1,15.8,83,65,48,30.47,30.14,4,0,5,0.00
2013-12-25,39.0,30.1,24.3,21.2,16.8,12.9,85,59,37,30.57,30.42,3,0,3,0.00
2013-12-26,52.2,37.0,24.6,32.0,27.7,20.7,90,71,40,30.42,30.25,2,0,2,0.00
2013-12-27,52.0,36.4,25.5,30.4,26.3,22.5,93,71,34,30.48,30.37,3,0,3,0.00
2013-12-28,57.6,40.3,25.3,39.7,31.3,23.4,93,73,38,30.42,30.17,3,0,3,0.00
2013-12-29,53.8,46.7,41.2,52.9,45.0,39.0,98,94,76,30.17,29.72,3,0,3,2.02
2013-12-30,54.3,45.0,36.3,46.9,40.6,35.4,98,85,65,30.15,29.93,2,0,3,0.00
2013-12-31,51.1,41.5,31.1,38.7,33.1,26.4,95,74,40,30.37,30.13,5,0,5,0.00
2014-1-1,50.5,38.2,30.6,33.3,30.3,27.0,93,76,41,30.45,30.17,3,0,3,0.00
2014-1-2,46.6,41.8,35.8,45.1,39.0,32.9,97,90,78,30.17,29.59,3,0,3,0.32